sensor_id;sensor_type;location;lat;lon;timestamp;pressure;altitude;pressure_sealevel;temperature;humidity
41945;BME280;63122;52.424;13.458;2023-07-28T00:00:21;99747.25;;;15.42;100.00
41945;BME280;63122;52.424;13.458;2023-07-28T00:02:34;99739.28;;;15.42;100.00
41945;BME280;63122;52.424;13.458;2023-07-28T00:04:29;99743.75;;;15.41;100.00
41945;BME280;63122;52.424;13.458;2023-07-28T00:06:24;99740.50;;;15.46;100.00
41945;BME280;63122;52.424;13.458;2023-07-28T00:08:17;99737.84;;;15.39;100.00
41945;BME280;63122;52.424;13.458;2023-07-28T00:10:15;99736.81;;;15.40;100.00
41945;BME280;63122;52.424;13.458;2023-07-28T00:12:10;99727.81;;;15.41;100.00
41945;BME280;63122;52.424;13.458;2023-07-28T00:14:05;99728.00;;;15.46;100.00
41945;BME280;63122;52.424;13.458;2023-07-28T00:15:58;99725.34;;;15.46;100.00
41945;BME280;63122;52.424;13.458;2023-07-28T00:17:53;99727.63;;;15.43;100.00
41945;BME280;63122;52.424;13.458;2023-07-28T00:19:48;99723.34;;;15.42;100.00
41945;BME280;63122;52.424;13.458;2023-07-28T00:21:43;99718.81;;;15.42;100.00
41945;BME280;63122;52.424;13.458;2023-07-28T00:23:39;99722.50;;;15.41;100.00
41945;BME280;63122;52.424;13.458;2023-07-28T00:25:37;99723.34;;;15.42;100.00
41945;BME280;63122;52.424;13.458;2023-07-28T00:27:30;99711.25;;;15.39;100.00
41945;BME280;63122;52.424;13.458;2023-07-28T00:29:25;99709.22;;;15.41;100.00
41945;BME280;63122;52.424;13.458;2023-07-28T00:31:23;99704.94;;;15.40;100.00
41945;BME280;63122;52.424;13.458;2023-07-28T00:33:18;99710.25;;;15.40;100.00
41945;BME280;63122;52.424;13.458;2023-07-28T00:35:11;99702.28;;;15.40;100.00
41945;BME280;63122;52.424;13.458;2023-07-28T00:37:06;99703.91;;;15.41;100.00
41945;BME280;63122;52.424;13.458;2023-07-28T00:38:59;99702.50;;;15.38;100.00
41945;BME280;63122;52.424;13.458;2023-07-28T00:40:57;99705.53;;;15.42;100.00
41945;BME280;63122;52.424;13.458;2023-07-28T00:42:50;99701.03;;;15.43;100.00
41945;BME280;63122;52.424;13.458;2023-07-28T00:44:45;99702.69;;;15.44;100.00
41945;BME280;63122;52.424;13.458;2023-07-28T00:46:40;99701.84;;;15.43;100.00
41945;BME280;63122;52.424;13.458;2023-07-28T00:48:36;99708.00;;;15.44;100.00
41945;BME280;63122;52.424;13.458;2023-07-28T00:50:31;99696.13;;;15.46;100.00
41945;BME280;63122;52.424;13.458;2023-07-28T00:52:26;99700.63;;;15.46;100.00
41945;BME280;63122;52.424;13.458;2023-07-28T00:54:21;99711.03;;;15.47;100.00
41945;BME280;63122;52.424;13.458;2023-07-28T00:56:20;99708.19;;;15.49;100.00
41945;BME280;63122;52.424;13.458;2023-07-28T00:58:15;99705.53;;;15.49;100.00
41945;BME280;63122;52.424;13.458;2023-07-28T01:00:12;99704.50;;;15.50;100.00
41945;BME280;63122;52.424;13.458;2023-07-28T01:02:07;99707.78;;;15.52;100.00
41945;BME280;63122;52.424;13.458;2023-07-28T01:04:03;99698.56;;;15.54;100.00
41945;BME280;63122;52.424;13.458;2023-07-28T01:06:09;99684.25;;;15.55;100.00
41945;BME280;63122;52.424;13.458;2023-07-28T01:08:09;99693.03;;;15.56;100.00
41945;BME280;63122;52.424;13.458;2023-07-28T01:10:10;99691.22;;;15.57;100.00
41945;BME280;63122;52.424;13.458;2023-07-28T01:12:09;99696.09;;;15.60;100.00
41945;BME280;63122;52.424;13.458;2023-07-28T01:14:05;99692.63;;;15.59;100.00
41945;BME280;63122;52.424;13.458;2023-07-28T01:16:00;99702.22;;;15.60;100.00
41945;BME280;63122;52.424;13.458;2023-07-28T01:17:54;99688.94;;;15.60;100.00
41945;BME280;63122;52.424;13.458;2023-07-28T01:19:49;99682.22;;;15.58;100.00
41945;BME280;63122;52.424;13.458;2023-07-28T01:21:48;99687.91;;;15.61;100.00
41945;BME280;63122;52.424;13.458;2023-07-28T01:23:55;99678.28;;;15.60;100.00
41945;BME280;63122;52.424;13.458;2023-07-28T01:25:59;99673.59;;;15.62;100.00
41945;BME280;63122;52.424;13.458;2023-07-28T01:28:02;99674.41;;;15.63;100.00
41945;BME280;63122;52.424;13.458;2023-07-28T01:29:58;99685.84;;;15.63;100.00
41945;BME280;63122;52.424;13.458;2023-07-28T01:31:54;99676.03;;;15.64;100.00
41945;BME280;63122;52.424;13.458;2023-07-28T01:33:49;99675.03;;;15.65;100.00
41945;BME280;63122;52.424;13.458;2023-07-28T01:35:45;99677.69;;;15.65;100.00
41945;BME280;63122;52.424;13.458;2023-07-28T01:37:40;99681.78;;;15.67;100.00
41945;BME280;63122;52.424;13.458;2023-07-28T01:39:35;99672.97;;;15.67;100.00
41945;BME280;63122;52.424;13.458;2023-07-28T01:41:30;99678.88;;;15.69;100.00
41945;BME280;63122;52.424;13.458;2023-07-28T01:43:28;99675.44;;;15.68;100.00
41945;BME280;63122;52.424;13.458;2023-07-28T01:45:24;99671.75;;;15.69;100.00
41945;BME280;63122;52.424;13.458;2023-07-28T01:47:16;99681.34;;;15.71;100.00
41945;BME280;63122;52.424;13.458;2023-07-28T01:49:11;99676.22;;;15.69;100.00
41945;BME280;63122;52.424;13.458;2023-07-28T01:51:05;99681.13;;;15.72;100.00
41945;BME280;63122;52.424;13.458;2023-07-28T01:53:00;99680.31;;;15.72;100.00
41945;BME280;63122;52.424;13.458;2023-07-28T01:54:55;99673.97;;;15.73;100.00
41945;BME280;63122;52.424;13.458;2023-07-28T01:56:50;99675.63;;;15.74;100.00
41945;BME280;63122;52.424;13.458;2023-07-28T01:58:48;99678.03;;;15.75;100.00
41945;BME280;63122;52.424;13.458;2023-07-28T02:00:41;99676.22;;;15.76;100.00
41945;BME280;63122;52.424;13.458;2023-07-28T02:02:38;99675.00;;;15.78;100.00
41945;BME280;63122;52.424;13.458;2023-07-28T02:04:30;99675.78;;;15.79;100.00
41945;BME280;63122;52.424;13.458;2023-07-28T02:06:26;99664.13;;;15.80;100.00
41945;BME280;63122;52.424;13.458;2023-07-28T02:08:19;99672.72;;;15.82;100.00
41945;BME280;63122;52.424;13.458;2023-07-28T02:10:15;99675.16;;;15.83;100.00
41945;BME280;63122;52.424;13.458;2023-07-28T02:12:07;99670.66;;;15.84;100.00
41945;BME280;63122;52.424;13.458;2023-07-28T02:14:05;99674.94;;;15.85;100.00
41945;BME280;63122;52.424;13.458;2023-07-28T02:16:01;99680.88;;;15.87;100.00
41945;BME280;63122;52.424;13.458;2023-07-28T02:17:56;99673.72;;;15.88;100.00
41945;BME280;63122;52.424;13.458;2023-07-28T02:19:51;99684.34;;;15.88;100.00
41945;BME280;63122;52.424;13.458;2023-07-28T02:21:44;99686.03;;;15.89;100.00
41945;BME280;63122;52.424;13.458;2023-07-28T02:23:39;99682.53;;;15.88;100.00
41945;BME280;63122;52.424;13.458;2023-07-28T02:25:34;99688.25;;;15.92;100.00
41945;BME280;63122;52.424;13.458;2023-07-28T02:27:27;99686.44;;;15.92;100.00
41945;BME280;63122;52.424;13.458;2023-07-28T02:29:25;99686.03;;;15.89;100.00
41945;BME280;63122;52.424;13.458;2023-07-28T02:31:17;99683.97;;;15.91;100.00
41945;BME280;63122;52.424;13.458;2023-07-28T02:33:13;99686.03;;;15.89;100.00
41945;BME280;63122;52.424;13.458;2023-07-28T02:35:08;99679.66;;;15.90;100.00
41945;BME280;63122;52.424;13.458;2023-07-28T02:37:04;99676.59;;;15.93;100.00
41945;BME280;63122;52.424;13.458;2023-07-28T02:38:59;99681.31;;;15.91;100.00
41945;BME280;63122;52.424;13.458;2023-07-28T02:40:54;99673.53;;;15.89;100.00
41945;BME280;63122;52.424;13.458;2023-07-28T02:42:50;99670.88;;;15.89;100.00
41945;BME280;63122;52.424;13.458;2023-07-28T02:44:48;99667.19;;;15.90;100.00
41945;BME280;63122;52.424;13.458;2023-07-28T02:46:43;99664.75;;;15.89;100.00
41945;BME280;63122;52.424;13.458;2023-07-28T02:48:36;99664.75;;;15.89;100.00
41945;BME280;63122;52.424;13.458;2023-07-28T02:50:31;99661.84;;;15.90;100.00
41945;BME280;63122;52.424;13.458;2023-07-28T02:52:26;99662.88;;;15.89;100.00
41945;BME280;63122;52.424;13.458;2023-07-28T02:54:22;99668.22;;;15.89;100.00
41945;BME280;63122;52.424;13.458;2023-07-28T02:56:15;99662.09;;;15.89;100.00
41945;BME280;63122;52.424;13.458;2023-07-28T02:58:13;99658.41;;;15.90;100.00
41945;BME280;63122;52.424;13.458;2023-07-28T03:00:12;99659.44;;;15.89;100.00
41945;BME280;63122;52.424;13.458;2023-07-28T03:02:08;99663.91;;;15.88;100.00
41945;BME280;63122;52.424;13.458;2023-07-28T03:04:03;99661.06;;;15.90;100.00
41945;BME280;63122;52.424;13.458;2023-07-28T03:05:58;99667.19;;;15.90;100.00
41945;BME280;63122;52.424;13.458;2023-07-28T03:07:54;99661.25;;;15.88;100.00
41945;BME280;63122;52.424;13.458;2023-07-28T03:09:46;99664.50;;;15.90;100.00
41945;BME280;63122;52.424;13.458;2023-07-28T03:11:42;99674.97;;;15.92;100.00
41945;BME280;63122;52.424;13.458;2023-07-28T03:13:34;99676.00;;;15.91;100.00
41945;BME280;63122;52.424;13.458;2023-07-28T03:15:32;99670.06;;;15.89;100.00
41945;BME280;63122;52.424;13.458;2023-07-28T03:17:27;99666.97;;;15.92;100.00
41945;BME280;63122;52.424;13.458;2023-07-28T03:19:23;99666.19;;;15.91;100.00
41945;BME280;63122;52.424;13.458;2023-07-28T03:21:18;99682.34;;;15.90;100.00
41945;BME280;63122;52.424;13.458;2023-07-28T03:23:13;99677.63;;;15.92;100.00
41945;BME280;63122;52.424;13.458;2023-07-28T03:25:09;99674.75;;;15.93;100.00
41945;BME280;63122;52.424;13.458;2023-07-28T03:27:05;99681.09;;;15.92;100.00
41945;BME280;63122;52.424;13.458;2023-07-28T03:28:57;99674.53;;;15.95;100.00
41945;BME280;63122;52.424;13.458;2023-07-28T03:30:55;99684.97;;;15.96;100.00
41945;BME280;63122;52.424;13.458;2023-07-28T03:32:51;99700.09;;;15.96;100.00
41945;BME280;63122;52.424;13.458;2023-07-28T03:34:46;99692.13;;;15.96;100.00
41945;BME280;63122;52.424;13.458;2023-07-28T03:36:42;99685.56;;;15.98;100.00
41945;BME280;63122;52.424;13.458;2023-07-28T03:38:37;99683.53;;;16.01;100.00
41945;BME280;63122;52.424;13.458;2023-07-28T03:40:33;99690.91;;;15.98;100.00
41945;BME280;63122;52.424;13.458;2023-07-28T03:42:28;99688.00;;;16.00;100.00
41945;BME280;63122;52.424;13.458;2023-07-28T03:44:24;99691.50;;;16.01;100.00
41945;BME280;63122;52.424;13.458;2023-07-28T03:46:22;99689.88;;;16.00;100.00
41945;BME280;63122;52.424;13.458;2023-07-28T03:48:20;99690.47;;;16.02;100.00
41945;BME280;63122;52.424;13.458;2023-07-28T03:50:16;99688.41;;;16.04;100.00
41945;BME280;63122;52.424;13.458;2023-07-28T03:52:09;99693.53;;;16.05;100.00
41945;BME280;63122;52.424;13.458;2023-07-28T03:54:05;99694.13;;;16.07;100.00
41945;BME280;63122;52.424;13.458;2023-07-28T03:56:00;99700.88;;;16.03;100.00
41945;BME280;63122;52.424;13.458;2023-07-28T03:57:53;99692.69;;;16.05;100.00
41945;BME280;63122;52.424;13.458;2023-07-28T03:59:48;99697.19;;;16.04;100.00
41945;BME280;63122;52.424;13.458;2023-07-28T04:01:46;99710.50;;;16.04;100.00
41945;BME280;63122;52.424;13.458;2023-07-28T04:03:42;99699.84;;;16.04;100.00
41945;BME280;63122;52.424;13.458;2023-07-28T04:05:37;99702.13;;;16.07;100.00
41945;BME280;63122;52.424;13.458;2023-07-28T04:07:32;99698.03;;;16.05;100.00
41945;BME280;63122;52.424;13.458;2023-07-28T04:09:27;99711.31;;;16.05;100.00
41945;BME280;63122;52.424;13.458;2023-07-28T04:11:22;99711.13;;;16.06;100.00
41945;BME280;63122;52.424;13.458;2023-07-28T04:13:18;99708.47;;;16.06;100.00
41945;BME280;63122;52.424;13.458;2023-07-28T04:15:13;99704.97;;;16.06;100.00
41945;BME280;63122;52.424;13.458;2023-07-28T04:17:08;99708.47;;;16.06;100.00
41945;BME280;63122;52.424;13.458;2023-07-28T04:19:04;99704.78;;;16.07;100.00
41945;BME280;63122;52.424;13.458;2023-07-28T04:20:56;99700.88;;;16.10;100.00
41945;BME280;63122;52.424;13.458;2023-07-28T04:22:52;99712.53;;;16.09;100.00
41945;BME280;63122;52.424;13.458;2023-07-28T04:24:47;99708.03;;;16.09;100.00
41945;BME280;63122;52.424;13.458;2023-07-28T04:26:43;99709.66;;;16.10;100.00
41945;BME280;63122;52.424;13.458;2023-07-28T04:28:41;99718.44;;;16.11;100.00
41945;BME280;63122;52.424;13.458;2023-07-28T04:30:34;99722.75;;;16.12;100.00
41945;BME280;63122;52.424;13.458;2023-07-28T04:32:31;99720.91;;;16.12;100.00
41945;BME280;63122;52.424;13.458;2023-07-28T04:34:27;99721.72;;;16.13;100.00
41945;BME280;63122;52.424;13.458;2023-07-28T04:36:20;99713.72;;;16.13;100.00
41945;BME280;63122;52.424;13.458;2023-07-28T04:38:15;99713.72;;;16.13;100.00
41945;BME280;63122;52.424;13.458;2023-07-28T04:40:11;99719.88;;;16.14;100.00
41945;BME280;63122;52.424;13.458;2023-07-28T04:42:08;99706.75;;;16.19;100.00
41945;BME280;63122;52.424;13.458;2023-07-28T04:44:02;99713.09;;;16.18;100.00
41945;BME280;63122;52.424;13.458;2023-07-28T04:45:57;99707.59;;;16.19;100.00
41945;BME280;63122;52.424;13.458;2023-07-28T04:47:55;99712.50;;;16.16;100.00
41945;BME280;63122;52.424;13.458;2023-07-28T04:49:48;99714.94;;;16.17;100.00
41945;BME280;63122;52.424;13.458;2023-07-28T04:51:43;99704.28;;;16.17;100.00
41945;BME280;63122;52.424;13.458;2023-07-28T04:53:36;99712.91;;;16.19;100.00
41945;BME280;63122;52.424;13.458;2023-07-28T04:55:31;99714.13;;;16.23;100.00
41945;BME280;63122;52.424;13.458;2023-07-28T04:57:24;99709.59;;;16.24;100.00
41945;BME280;63122;52.424;13.458;2023-07-28T04:59:19;99709.41;;;16.25;100.00
41945;BME280;63122;52.424;13.458;2023-07-28T05:01:12;99713.28;;;16.23;100.00
41945;BME280;63122;52.424;13.458;2023-07-28T05:03:10;99711.22;;;16.25;100.00
41945;BME280;63122;52.424;13.458;2023-07-28T05:05:04;99714.91;;;16.24;100.00
41945;BME280;63122;52.424;13.458;2023-07-28T05:06:59;99714.72;;;16.25;100.00
41945;BME280;63122;52.424;13.458;2023-07-28T05:08:54;99717.38;;;16.25;100.00
41945;BME280;63122;52.424;13.458;2023-07-28T05:10:47;99721.28;;;16.23;100.00
41945;BME280;63122;52.424;13.458;2023-07-28T05:12:42;99718.84;;;16.21;100.00
41945;BME280;63122;52.424;13.458;2023-07-28T05:14:37;99720.91;;;16.19;100.00
41945;BME280;63122;52.424;13.458;2023-07-28T05:16:33;99716.38;;;16.20;100.00
41945;BME280;63122;52.424;13.458;2023-07-28T05:18:28;99712.91;;;16.19;100.00
41945;BME280;63122;52.424;13.458;2023-07-28T05:20:23;99721.28;;;16.23;100.00
41945;BME280;63122;52.424;13.458;2023-07-28T05:22:19;99725.56;;;16.24;100.00
41945;BME280;63122;52.424;13.458;2023-07-28T05:24:14;99728.22;;;16.24;100.00
41945;BME280;63122;52.424;13.458;2023-07-28T05:26:10;99730.44;;;16.27;100.00
41945;BME280;63122;52.424;13.458;2023-07-28T05:28:05;99738.84;;;16.31;100.00
41945;BME280;63122;52.424;13.458;2023-07-28T05:30:01;99732.91;;;16.35;100.00
41945;BME280;63122;52.424;13.458;2023-07-28T05:31:58;99732.47;;;16.38;100.00
41945;BME280;63122;52.424;13.458;2023-07-28T05:33:57;99734.53;;;16.36;100.00
41945;BME280;63122;52.424;13.458;2023-07-28T05:35:59;99730.84;;;16.37;100.00
41945;BME280;63122;52.424;13.458;2023-07-28T05:37:55;99733.88;;;16.41;100.00
41945;BME280;63122;52.424;13.458;2023-07-28T05:39:50;99734.69;;;16.41;100.00
41945;BME280;63122;52.424;13.458;2023-07-28T05:41:43;99731.88;;;16.36;100.00
41945;BME280;63122;52.424;13.458;2023-07-28T05:43:38;99729.41;;;16.35;100.00
41945;BME280;63122;52.424;13.458;2023-07-28T05:45:33;99739.84;;;16.36;100.00
41945;BME280;63122;52.424;13.458;2023-07-28T05:47:28;99736.16;;;16.37;100.00
41945;BME280;63122;52.424;13.458;2023-07-28T05:49:26;99738.38;;;16.40;100.00
41945;BME280;63122;52.424;13.458;2023-07-28T05:51:22;99734.28;;;16.38;100.00
41945;BME280;63122;52.424;13.458;2023-07-28T05:53:15;99735.94;;;16.39;100.00
41945;BME280;63122;52.424;13.458;2023-07-28T05:55:11;99740.03;;;16.41;100.00
41945;BME280;63122;52.424;13.458;2023-07-28T05:57:07;99739.19;;;16.41;100.00
41945;BME280;63122;52.424;13.458;2023-07-28T05:58:59;99749.41;;;16.44;100.00
41945;BME280;63122;52.424;13.458;2023-07-28T06:00:55;99752.66;;;16.46;100.00
41945;BME280;63122;52.424;13.458;2023-07-28T06:02:50;99746.75;;;16.44;100.00
41945;BME280;63122;52.424;13.458;2023-07-28T06:04:46;99745.94;;;16.44;100.00
41945;BME280;63122;52.424;13.458;2023-07-28T06:06:42;99744.47;;;16.48;100.00
41945;BME280;63122;52.424;13.458;2023-07-28T06:08:37;99751.66;;;16.47;100.00
41945;BME280;63122;52.424;13.458;2023-07-28T06:10:34;99749.00;;;16.47;100.00
41945;BME280;63122;52.424;13.458;2023-07-28T06:12:29;99751.84;;;16.52;100.00
41945;BME280;63122;52.424;13.458;2023-07-28T06:14:25;99760.03;;;16.51;100.00
41945;BME280;63122;52.424;13.458;2023-07-28T06:16:20;99769.03;;;16.50;100.00
41945;BME280;63122;52.424;13.458;2023-07-28T06:18:17;99765.19;;;16.46;100.00
41945;BME280;63122;52.424;13.458;2023-07-28T06:20:17;99761.47;;;16.47;100.00
41945;BME280;63122;52.424;13.458;2023-07-28T06:22:13;99769.88;;;16.50;100.00
41945;BME280;63122;52.424;13.458;2023-07-28T06:24:08;99773.75;;;16.54;100.00
41945;BME280;63122;52.424;13.458;2023-07-28T06:26:05;99776.41;;;16.54;100.00
41945;BME280;63122;52.424;13.458;2023-07-28T06:28:00;99779.44;;;16.58;100.00
41945;BME280;63122;52.424;13.458;2023-07-28T06:29:56;99781.91;;;16.60;100.00
41945;BME280;63122;52.424;13.458;2023-07-28T06:31:53;99780.88;;;16.61;100.00
41945;BME280;63122;52.424;13.458;2023-07-28T06:33:46;99788.66;;;16.62;100.00
41945;BME280;63122;52.424;13.458;2023-07-28T06:35:45;99791.72;;;16.59;100.00
41945;BME280;63122;52.424;13.458;2023-07-28T06:37:40;99796.00;;;16.60;100.00
41945;BME280;63122;52.424;13.458;2023-07-28T06:39:36;99797.25;;;16.64;100.00
41945;BME280;63122;52.424;13.458;2023-07-28T06:41:29;99790.66;;;16.67;100.00
41945;BME280;63122;52.424;13.458;2023-07-28T06:43:25;99786.97;;;16.68;100.00
41945;BME280;63122;52.424;13.458;2023-07-28T06:45:21;99795.56;;;16.70;100.00
41945;BME280;63122;52.424;13.458;2023-07-28T06:47:16;99797.78;;;16.73;100.00
41945;BME280;63122;52.424;13.458;2023-07-28T06:49:12;99798.78;;;16.79;100.00
41945;BME280;63122;52.424;13.458;2023-07-28T06:51:11;99803.31;;;16.78;100.00
41945;BME280;63122;52.424;13.458;2023-07-28T06:53:07;99798.19;;;16.77;100.00
41945;BME280;63122;52.424;13.458;2023-07-28T06:55:02;99804.53;;;16.76;100.00
41945;BME280;63122;52.424;13.458;2023-07-28T06:56:58;99793.47;;;16.79;100.00
41945;BME280;63122;52.424;13.458;2023-07-28T06:58:51;99796.09;;;16.86;100.00
41945;BME280;63122;52.424;13.458;2023-07-28T07:01:05;99793.19;;;16.87;100.00
41945;BME280;63122;52.424;13.458;2023-07-28T07:03:03;99797.31;;;16.83;100.00
41945;BME280;63122;52.424;13.458;2023-07-28T07:04:58;99803.47;;;16.83;100.00
41945;BME280;63122;52.424;13.458;2023-07-28T07:06:56;99802.44;;;16.84;100.00
41945;BME280;63122;52.424;13.458;2023-07-28T07:08:51;99804.25;;;16.91;100.00
41945;BME280;63122;52.424;13.458;2023-07-28T07:10:50;99805.06;;;16.98;100.00
41945;BME280;63122;52.424;13.458;2023-07-28T07:12:45;99801.75;;;16.96;100.00
41945;BME280;63122;52.424;13.458;2023-07-28T07:14:41;99814.03;;;16.97;100.00
41945;BME280;63122;52.424;13.458;2023-07-28T07:16:36;99803.38;;;16.97;100.00
41945;BME280;63122;52.424;13.458;2023-07-28T07:18:32;99826.16;;;17.00;100.00
41945;BME280;63122;52.424;13.458;2023-07-28T07:20:27;99809.34;;;16.99;100.00
41945;BME280;63122;52.424;13.458;2023-07-28T07:22:22;99813.84;;;17.05;100.00
41945;BME280;63122;52.424;13.458;2023-07-28T07:24:18;99812.13;;;17.11;100.00
41945;BME280;63122;52.424;13.458;2023-07-28T07:26:13;99817.22;;;17.19;100.00
41945;BME280;63122;52.424;13.458;2023-07-28T07:28:08;99815.16;;;17.21;100.00
41945;BME280;63122;52.424;13.458;2023-07-28T07:30:05;99815.16;;;17.21;100.00
41945;BME280;63122;52.424;13.458;2023-07-28T07:32:01;99811.47;;;17.22;100.00
41945;BME280;63122;52.424;13.458;2023-07-28T07:33:56;99807.38;;;17.20;100.00
41945;BME280;63122;52.424;13.458;2023-07-28T07:35:52;99812.25;;;17.23;100.00
41945;BME280;63122;52.424;13.458;2023-07-28T07:37:50;99813.84;;;17.31;100.00
41945;BME280;63122;52.424;13.458;2023-07-28T07:39:45;99818.59;;;17.29;100.00
41945;BME280;63122;52.424;13.458;2023-07-28T07:41:41;99806.16;;;17.41;100.00
41945;BME280;63122;52.424;13.458;2023-07-28T07:43:37;99813.31;;;17.47;100.00
41945;BME280;63122;52.424;13.458;2023-07-28T07:45:32;99819.06;;;17.44;100.00
41945;BME280;63122;52.424;13.458;2023-07-28T07:47:28;99821.69;;;17.51;100.00
41945;BME280;63122;52.424;13.458;2023-07-28T07:49:21;99816.00;;;17.47;100.00
41945;BME280;63122;52.424;13.458;2023-07-28T07:51:17;99813.63;;;17.58;100.00
41945;BME280;63122;52.424;13.458;2023-07-28T07:53:14;99808.84;;;17.66;100.00
41945;BME280;63122;52.424;13.458;2023-07-28T07:55:10;99820.31;;;17.67;100.00
41945;BME280;63122;52.424;13.458;2023-07-28T07:57:06;99820.53;;;17.65;100.00
41945;BME280;63122;52.424;13.458;2023-07-28T07:58:59;99812.63;;;17.77;100.00
41945;BME280;63122;52.424;13.458;2023-07-28T08:00:55;99846.28;;;17.78;100.00
41945;BME280;63122;52.424;13.458;2023-07-28T08:02:51;99822.03;;;17.80;100.00
41945;BME280;63122;52.424;13.458;2023-07-28T08:04:46;99836.91;;;17.69;100.00
41945;BME280;63122;52.424;13.458;2023-07-28T08:06:42;99822.31;;;17.72;100.00
41945;BME280;63122;52.424;13.458;2023-07-28T08:08:41;99844.69;;;17.70;100.00
41945;BME280;63122;52.424;13.458;2023-07-28T08:10:36;99839.53;;;17.76;100.00
41945;BME280;63122;52.424;13.458;2023-07-28T08:12:34;99840.50;;;17.81;100.00
41945;BME280;63122;52.424;13.458;2023-07-28T08:14:29;99826.28;;;17.88;100.00
41945;BME280;63122;52.424;13.458;2023-07-28T08:16:22;99829.53;;;17.90;100.00
41945;BME280;63122;52.424;13.458;2023-07-28T08:18:17;99817.25;;;17.89;100.00
41945;BME280;63122;52.424;13.458;2023-07-28T08:20:13;99818.38;;;17.99;100.00
41945;BME280;63122;52.424;13.458;2023-07-28T08:22:05;99815.69;;;17.99;100.00
41945;BME280;63122;52.424;13.458;2023-07-28T08:24:04;99815.94;;;18.17;100.00
41945;BME280;63122;52.424;13.458;2023-07-28T08:25:57;99821.22;;;18.23;100.00
41945;BME280;63122;52.424;13.458;2023-07-28T08:27:53;99818.91;;;18.27;100.00
41945;BME280;63122;52.424;13.458;2023-07-28T08:29:48;99834.25;;;18.32;100.00
41945;BME280;63122;52.424;13.458;2023-07-28T08:31:43;99822.97;;;18.48;100.00
41945;BME280;63122;52.424;13.458;2023-07-28T08:33:39;99810.28;;;18.62;100.00
41945;BME280;63122;52.424;13.458;2023-07-28T08:35:34;99814.78;;;18.62;100.00
41945;BME280;63122;52.424;13.458;2023-07-28T08:37:29;99826.97;;;18.58;100.00
41945;BME280;63122;52.424;13.458;2023-07-28T08:39:27;99823.50;;;18.69;100.00
41945;BME280;63122;52.424;13.458;2023-07-28T08:41:23;99811.19;;;18.68;100.00
41945;BME280;63122;52.424;13.458;2023-07-28T08:43:18;99823.22;;;18.77;100.00
41945;BME280;63122;52.424;13.458;2023-07-28T08:45:11;99826.06;;;18.64;100.00
41945;BME280;63122;52.424;13.458;2023-07-28T08:47:06;99824.16;;;18.52;100.00
41945;BME280;63122;52.424;13.458;2023-07-28T08:49:02;99824.38;;;18.51;100.00
41945;BME280;63122;52.424;13.458;2023-07-28T08:50:58;99833.78;;;18.53;100.00
41945;BME280;63122;52.424;13.458;2023-07-28T08:52:53;99826.69;;;18.47;100.00
41945;BME280;63122;52.424;13.458;2023-07-28T08:54:54;99841.16;;;18.39;100.00
41945;BME280;63122;52.424;13.458;2023-07-28T08:56:50;99836.13;;;18.31;100.00
41945;BME280;63122;52.424;13.458;2023-07-28T08:58:43;99845.44;;;18.40;100.00
41945;BME280;63122;52.424;13.458;2023-07-28T09:00:40;99848.44;;;18.32;100.00
41945;BME280;63122;52.424;13.458;2023-07-28T09:02:36;99857.47;;;18.31;100.00
41945;BME280;63122;52.424;13.458;2023-07-28T09:04:32;99859.25;;;18.37;100.00
41945;BME280;63122;52.424;13.458;2023-07-28T09:06:28;99872.59;;;18.37;100.00
41945;BME280;63122;52.424;13.458;2023-07-28T09:08:24;99864.72;;;18.42;100.00
41945;BME280;63122;52.424;13.458;2023-07-28T09:10:22;99855.75;;;18.55;100.00
41945;BME280;63122;52.424;13.458;2023-07-28T09:12:18;99860.50;;;18.72;100.00
41945;BME280;63122;52.424;13.458;2023-07-28T09:14:14;99845.06;;;18.74;100.00
41945;BME280;63122;52.424;13.458;2023-07-28T09:16:19;99854.91;;;18.74;100.00
41945;BME280;63122;52.424;13.458;2023-07-28T09:18:16;99854.38;;;18.83;100.00
41945;BME280;63122;52.424;13.458;2023-07-28T09:20:15;99858.16;;;18.76;100.00
41945;BME280;63122;52.424;13.458;2023-07-28T09:22:13;99853.31;;;18.84;100.00
41945;BME280;63122;52.424;13.458;2023-07-28T09:24:06;99859.03;;;18.88;100.00
41945;BME280;63122;52.424;13.458;2023-07-28T09:26:04;99854.38;;;19.02;100.00
41945;BME280;63122;52.424;13.458;2023-07-28T09:28:01;99879.78;;;19.05;100.00
41945;BME280;63122;52.424;13.458;2023-07-28T09:29:56;99885.41;;;18.66;100.00
41945;BME280;63122;52.424;13.458;2023-07-28T09:31:50;99873.47;;;18.68;100.00
41945;BME280;63122;52.424;13.458;2023-07-28T09:33:45;99863.88;;;18.79;100.00
41945;BME280;63122;52.424;13.458;2023-07-28T09:35:47;99873.84;;;18.72;100.00
41945;BME280;63122;52.424;13.458;2023-07-28T09:37:44;99881.94;;;18.65;100.00
41945;BME280;63122;52.424;13.458;2023-07-28T09:39:40;99870.84;;;18.80;100.00
41945;BME280;63122;52.424;13.458;2023-07-28T09:41:39;99865.31;;;18.63;100.00
41945;BME280;63122;52.424;13.458;2023-07-28T09:43:34;99898.84;;;18.59;100.00
41945;BME280;63122;52.424;13.458;2023-07-28T09:45:27;99900.78;;;18.52;100.00
41945;BME280;63122;52.424;13.458;2023-07-28T09:47:30;99894.31;;;18.60;100.00
41945;BME280;63122;52.424;13.458;2023-07-28T09:49:28;99905.66;;;18.55;100.00
41945;BME280;63122;52.424;13.458;2023-07-28T09:51:27;99890.09;;;18.52;100.00
41945;BME280;63122;52.424;13.458;2023-07-28T09:53:28;99892.63;;;18.47;100.00
41945;BME280;63122;52.424;13.458;2023-07-28T09:55:24;99893.66;;;18.46;100.00
41945;BME280;63122;52.424;13.458;2023-07-28T09:57:23;99895.94;;;18.42;100.00